Time;durP1;ratioP1;P1;durP2;ratioP2;P2;SDS_P1;SDS_P2;PMS_P1;PMS_P2;Temp;Humidity;BMP_temperature;BMP_pressure;BME280_temperature;BME280_humidity;BME280_pressure;Samples;Min_cycle;Max_cycle;Signal;HPM_P1;HPM_P2
2021/11/13 00:00:21;;;;;;;5.53;2.72;;;;;;;;;;5051041;28;20025;-81
2021/11/13 00:02:48;;;;;;;5.55;2.72;;;;;;;;;;5049379;28;20373;-81
2021/11/13 00:05:14;;;;;;;4.72;2.50;;;;;;;;;;5050395;28;20033;-81
2021/11/13 00:07:40;;;;;;;6.30;2.92;;;;;;;;;;5050438;28;20021;-81
2021/11/13 00:10:07;;;;;;;7.65;2.80;;;;;;;;;;5050226;28;20025;-81
2021/11/13 00:12:33;;;;;;;8.50;3.22;;;;;;;;;;5049312;28;20025;-82
2021/11/13 00:15:03;;;;;;;8.63;3.05;;;;;;;;;;5050056;28;20040;-81
2021/11/13 00:17:29;;;;;;;7.30;3.20;;;;;;;;;;5050351;28;20069;-80
2021/11/13 00:19:55;;;;;;;4.47;2.47;;;;;;;;;;5050198;28;20057;-81
2021/11/13 00:22:21;;;;;;;5.80;2.92;;;;;;;;;;5050575;28;20413;-79
2021/11/13 00:24:47;;;;;;;7.53;3.13;;;;;;;;;;5048945;28;20056;-81
2021/11/13 00:27:13;;;;;;;8.18;2.65;;;;;;;;;;5048840;28;20401;-82
2021/11/13 00:29:39;;;;;;;7.00;3.30;;;;;;;;;;5050196;28;20025;-80
2021/11/13 00:32:05;;;;;;;7.63;3.40;;;;;;;;;;5048402;28;20025;-80
2021/11/13 00:34:31;;;;;;;5.85;2.53;;;;;;;;;;5050163;28;20108;-81
2021/11/13 00:36:57;;;;;;;8.82;2.83;;;;;;;;;;5049489;28;20094;-81
2021/11/13 00:39:24;;;;;;;5.65;2.53;;;;;;;;;;5048773;28;20060;-82
2021/11/13 00:41:50;;;;;;;6.88;3.28;;;;;;;;;;5050266;28;20017;-82
2021/11/13 00:44:16;;;;;;;6.07;3.00;;;;;;;;;;5049640;28;20033;-81
2021/11/13 00:46:42;;;;;;;6.30;3.00;;;;;;;;;;5049836;28;20025;-82
2021/11/13 00:49:09;;;;;;;5.90;2.85;;;;;;;;;;5049410;28;20112;-82
2021/11/13 00:51:36;;;;;;;6.90;2.95;;;;;;;;;;5049262;28;20489;-82
2021/11/13 00:54:02;;;;;;;6.68;2.45;;;;;;;;;;5049610;28;20473;-81
2021/11/13 00:56:29;;;;;;;6.65;2.75;;;;;;;;;;5049617;28;20017;-82
2021/11/13 00:58:55;;;;;;;7.03;2.25;;;;;;;;;;5049456;28;20497;-81
2021/11/13 01:01:21;;;;;;;6.50;2.67;;;;;;;;;;5048480;28;20472;-82
2021/11/13 01:03:47;;;;;;;6.65;2.72;;;;;;;;;;5048030;28;20039;-82
2021/11/13 01:06:13;;;;;;;6.03;3.08;;;;;;;;;;5049452;28;20054;-81
2021/11/13 01:08:40;;;;;;;6.95;2.55;;;;;;;;;;5049514;28;20029;-82
2021/11/13 01:11:09;;;;;;;5.80;2.40;;;;;;;;;;5049312;27;20025;-82
2021/11/13 01:13:35;;;;;;;4.43;2.13;;;;;;;;;;5049311;28;20029;-82
2021/11/13 01:16:01;;;;;;;6.50;2.67;;;;;;;;;;5049084;28;20069;-82
2021/11/13 01:18:27;;;;;;;6.25;2.00;;;;;;;;;;5047730;28;20029;-82
2021/11/13 01:20:54;;;;;;;7.43;2.55;;;;;;;;;;5049202;28;20062;-82
2021/11/13 01:23:20;;;;;;;5.75;2.40;;;;;;;;;;5048464;28;20052;-82
2021/11/13 01:25:46;;;;;;;6.15;2.45;;;;;;;;;;5049134;28;20485;-82
2021/11/13 01:28:12;;;;;;;5.07;2.40;;;;;;;;;;5048961;28;20017;-82
2021/11/13 01:30:38;;;;;;;5.68;2.63;;;;;;;;;;5049057;28;20485;-82
2021/11/13 01:33:04;;;;;;;6.22;2.40;;;;;;;;;;5048661;28;20032;-81
2021/11/13 01:35:31;;;;;;;5.50;2.30;;;;;;;;;;5049236;28;20031;-81
2021/11/13 01:37:57;;;;;;;5.45;2.20;;;;;;;;;;5047829;28;20040;-82
2021/11/13 01:40:24;;;;;;;5.28;1.85;;;;;;;;;;5048044;28;20392;-82
2021/11/13 01:42:51;;;;;;;7.55;2.58;;;;;;;;;;5049458;28;20373;-81
2021/11/13 01:45:17;;;;;;;3.47;1.67;;;;;;;;;;5048870;28;20053;-81
2021/11/13 01:47:44;;;;;;;6.28;2.75;;;;;;;;;;5048673;28;20035;-81
2021/11/13 01:50:12;;;;;;;3.80;1.85;;;;;;;;;;5048810;28;20022;-81
2021/11/13 01:52:39;;;;;;;5.13;2.47;;;;;;;;;;5048990;28;20052;-83
2021/11/13 01:55:05;;;;;;;6.03;2.20;;;;;;;;;;5048461;28;20726;-81
2021/11/13 01:57:43;;;;;;;6.25;2.53;;;;;;;;;;5048853;28;20069;-81
2021/11/13 02:00:10;;;;;;;4.72;1.90;;;;;;;;;;5047340;28;20079;-82
2021/11/13 02:02:36;;;;;;;4.97;2.00;;;;;;;;;;5048295;28;20039;-82
2021/11/13 02:05:04;;;;;;;5.03;2.00;;;;;;;;;;5046662;28;20078;-82
2021/11/13 02:07:30;;;;;;;4.30;2.10;;;;;;;;;;5048728;28;20517;-78
2021/11/13 02:09:56;;;;;;;6.05;1.95;;;;;;;;;;5048388;28;20545;-83
2021/11/13 02:12:22;;;;;;;6.22;2.08;;;;;;;;;;5048719;28;20112;-83
2021/11/13 02:14:48;;;;;;;4.05;1.60;;;;;;;;;;5049016;28;20025;-80
2021/11/13 02:17:14;;;;;;;4.63;2.22;;;;;;;;;;5048161;28;20033;-82
2021/11/13 02:19:41;;;;;;;4.35;2.13;;;;;;;;;;5047086;28;20029;-83
2021/11/13 02:22:07;;;;;;;4.15;1.83;;;;;;;;;;5048267;28;20032;-84
2021/11/13 02:24:33;;;;;;;3.70;1.90;;;;;;;;;;5048502;28;20025;-83
2021/11/13 02:26:59;;;;;;;4.00;1.85;;;;;;;;;;5048110;28;20506;-84
2021/11/13 02:29:25;;;;;;;4.30;1.80;;;;;;;;;;5048308;28;20516;-84
2021/11/13 02:31:53;;;;;;;4.05;2.10;;;;;;;;;;5048732;28;20043;-83
2021/11/13 02:34:19;;;;;;;4.90;1.98;;;;;;;;;;5048511;28;20099;-84
2021/11/13 02:36:45;;;;;;;5.00;1.90;;;;;;;;;;5048272;28;20029;-82
2021/11/13 02:39:12;;;;;;;4.82;1.85;;;;;;;;;;5047841;28;20033;-82
2021/11/13 02:41:39;;;;;;;3.55;1.77;;;;;;;;;;5048167;28;20017;-82
2021/11/13 02:44:05;;;;;;;2.75;1.23;;;;;;;;;;5048134;28;20029;-83
2021/11/13 02:46:33;;;;;;;5.15;2.13;;;;;;;;;;5047981;28;20057;-84
2021/11/13 02:49:01;;;;;;;4.35;1.55;;;;;;;;;;5046718;28;20024;-84
2021/11/13 02:51:27;;;;;;;4.25;1.63;;;;;;;;;;5047856;28;20033;-84
2021/11/13 02:53:53;;;;;;;4.57;1.48;;;;;;;;;;5048244;28;20078;-84
2021/11/13 02:56:19;;;;;;;3.28;1.60;;;;;;;;;;5048075;28;20025;-84
2021/11/13 02:58:45;;;;;;;3.67;1.52;;;;;;;;;;5048048;28;20173;-84
2021/11/13 03:01:13;;;;;;;4.05;1.75;;;;;;;;;;5047859;28;20017;-84
2021/11/13 03:03:39;;;;;;;5.85;1.63;;;;;;;;;;5047974;28;20033;-84
2021/11/13 03:06:08;;;;;;;4.53;1.98;;;;;;;;;;5047587;28;20085;-84
2021/11/13 03:08:34;;;;;;;2.95;1.52;;;;;;;;;;5047682;28;20025;-84
2021/11/13 03:11:02;;;;;;;4.47;1.70;;;;;;;;;;5046444;28;20029;-83
2021/11/13 03:13:29;;;;;;;4.15;1.80;;;;;;;;;;5047796;28;20025;-84
2021/11/13 03:15:55;;;;;;;3.45;1.67;;;;;;;;;;5050429;28;20056;-83
2021/11/13 03:18:21;;;;;;;3.65;1.52;;;;;;;;;;5051626;28;20029;-84
2021/11/13 03:20:47;;;;;;;4.13;1.60;;;;;;;;;;5049820;28;20025;-84
2021/11/13 03:23:15;;;;;;;3.55;1.40;;;;;;;;;;5051014;28;20054;-84
2021/11/13 03:25:44;;;;;;;2.88;1.20;;;;;;;;;;5049791;28;20033;-84
2021/11/13 03:28:12;;;;;;;2.60;1.33;;;;;;;;;;5050955;28;20021;-84
2021/11/13 03:30:39;;;;;;;3.10;1.38;;;;;;;;;;5051186;28;20039;-83
2021/11/13 03:33:05;;;;;;;3.13;1.33;;;;;;;;;;5050973;28;20112;-84
2021/11/13 03:35:32;;;;;;;3.88;1.60;;;;;;;;;;5050944;28;20025;-81
2021/11/13 03:38:03;;;;;;;3.38;1.67;;;;;;;;;;5050515;28;20036;-82
2021/11/13 03:40:29;;;;;;;5.20;1.55;;;;;;;;;;5051044;28;20112;-80
2021/11/13 03:42:55;;;;;;;3.38;1.30;;;;;;;;;;5050597;28;20033;-81
2021/11/13 03:45:21;;;;;;;3.35;1.17;;;;;;;;;;5050924;28;20036;-81
2021/11/13 03:47:47;;;;;;;3.47;1.40;;;;;;;;;;5050894;28;20414;-83
2021/11/13 03:50:14;;;;;;;2.58;1.20;;;;;;;;;;5049319;28;20033;-82
2021/11/13 03:52:40;;;;;;;3.53;1.20;;;;;;;;;;5049573;28;20548;-80
2021/11/13 03:55:06;;;;;;;2.65;1.13;;;;;;;;;;5050790;28;20040;-83
2021/11/13 03:57:33;;;;;;;3.05;1.10;;;;;;;;;;5050533;28;20033;-84
2021/11/13 03:59:59;;;;;;;3.05;1.30;;;;;;;;;;5050541;28;20021;-81
2021/11/13 04:02:25;;;;;;;2.17;1.10;;;;;;;;;;5050388;28;20401;-82
2021/11/13 04:04:51;;;;;;;3.10;1.30;;;;;;;;;;5049312;28;20029;-81
2021/11/13 04:07:17;;;;;;;2.40;1.00;;;;;;;;;;5050395;28;20055;-82
2021/11/13 04:09:43;;;;;;;2.80;1.50;;;;;;;;;;5050662;28;20445;-82
2021/11/13 04:12:13;;;;;;;2.88;1.00;;;;;;;;;;5050255;28;20389;-83
2021/11/13 04:14:41;;;;;;;2.83;0.80;;;;;;;;;;5049173;28;20029;-83
2021/11/13 04:17:07;;;;;;;3.20;0.95;;;;;;;;;;5050076;28;20025;-82
2021/11/13 04:19:33;;;;;;;3.53;1.00;;;;;;;;;;5050430;28;20037;-84
2021/11/13 04:21:59;;;;;;;2.20;0.85;;;;;;;;;;5050209;28;20024;-82
2021/11/13 04:24:25;;;;;;;2.15;0.90;;;;;;;;;;5050248;28;20037;-82
2021/11/13 04:26:51;;;;;;;3.35;0.93;;;;;;;;;;5049860;28;20025;-82
2021/11/13 04:29:18;;;;;;;2.58;1.23;;;;;;;;;;5050168;28;20538;-81
2021/11/13 04:31:44;;;;;;;2.10;1.00;;;;;;;;;;5050365;28;20028;-83
2021/11/13 04:34:14;;;;;;;2.42;1.23;;;;;;;;;;5049617;28;20029;-82
2021/11/13 04:36:45;;;;;;;1.75;0.90;;;;;;;;;;5050250;28;20025;-81
2021/11/13 04:39:12;;;;;;;3.05;1.10;;;;;;;;;;5049954;28;20065;-81
2021/11/13 04:41:39;;;;;;;1.75;0.80;;;;;;;;;;5050049;28;20029;-83
2021/11/13 04:44:05;;;;;;;2.30;1.02;;;;;;;;;;5049854;28;20029;-83
2021/11/13 04:46:31;;;;;;;2.70;1.20;;;;;;;;;;5048764;28;20124;-82
2021/11/13 04:48:57;;;;;;;2.42;1.08;;;;;;;;;;5049473;28;20029;-83
2021/11/13 04:51:23;;;;;;;2.55;0.90;;;;;;;;;;5050157;28;20078;-81
2021/11/13 04:53:49;;;;;;;2.38;1.00;;;;;;;;;;5050104;28;20035;-81
2021/11/13 04:56:15;;;;;;;2.55;1.10;;;;;;;;;;5049372;28;20112;-84
2021/11/13 04:58:41;;;;;;;4.85;1.30;;;;;;;;;;5049598;28;20037;-83
2021/11/13 05:01:08;;;;;;;3.30;1.25;;;;;;;;;;5049600;28;20025;-83
2021/11/13 05:03:34;;;;;;;3.20;0.93;;;;;;;;;;5048463;28;20033;-84
2021/11/13 05:06:00;;;;;;;3.42;1.00;;;;;;;;;;5049630;28;20089;-84
2021/11/13 05:08:26;;;;;;;1.33;0.73;;;;;;;;;;5049574;28;20089;-83
2021/11/13 05:10:52;;;;;;;2.33;0.80;;;;;;;;;;5049981;28;20028;-84
2021/11/13 05:13:19;;;;;;;3.13;1.13;;;;;;;;;;5049724;28;20058;-84
2021/11/13 05:15:45;;;;;;;2.42;0.90;;;;;;;;;;5049380;28;20017;-81
2021/11/13 05:18:11;;;;;;;1.90;0.95;;;;;;;;;;5048973;28;20049;-82
2021/11/13 05:20:38;;;;;;;2.15;0.88;;;;;;;;;;5049426;28;20049;-82
2021/11/13 05:23:04;;;;;;;2.45;1.00;;;;;;;;;;5049165;28;20025;-81
2021/11/13 05:25:30;;;;;;;3.40;0.70;;;;;;;;;;5049492;28;20021;-80
2021/11/13 05:27:56;;;;;;;2.55;0.90;;;;;;;;;;5049212;28;20146;-82
2021/11/13 05:30:23;;;;;;;2.25;0.98;;;;;;;;;;5048303;28;20139;-80
2021/11/13 05:32:49;;;;;;;2.00;0.90;;;;;;;;;;5049576;28;20048;-82
2021/11/13 05:35:16;;;;;;;2.05;0.70;;;;;;;;;;5049012;28;20029;-81
2021/11/13 05:37:42;;;;;;;4.18;1.30;;;;;;;;;;5048891;28;20086;-81
2021/11/13 05:40:09;;;;;;;2.33;0.90;;;;;;;;;;5048968;28;20112;-82
2021/11/13 05:42:36;;;;;;;2.47;0.98;;;;;;;;;;5047855;28;20412;-82
2021/11/13 05:45:02;;;;;;;1.95;0.80;;;;;;;;;;5048587;28;20022;-82
2021/11/13 05:47:28;;;;;;;2.25;0.80;;;;;;;;;;5048900;28;20032;-82
2021/11/13 05:49:55;;;;;;;5.95;0.90;;;;;;;;;;5048786;28;20104;-83
2021/11/13 05:52:21;;;;;;;3.30;1.20;;;;;;;;;;5049231;28;20033;-80
2021/11/13 05:54:47;;;;;;;3.45;1.02;;;;;;;;;;5048929;28;20032;-83
2021/11/13 05:57:14;;;;;;;2.20;0.82;;;;;;;;;;5048622;28;20082;-83
2021/11/13 05:59:39;;;;;;;4.22;1.00;;;;;;;;;;5048562;28;20056;-82
2021/11/13 06:02:06;;;;;;;2.08;0.88;;;;;;;;;;5048569;28;20473;-81
2021/11/13 06:04:32;;;;;;;3.10;0.63;;;;;;;;;;5047538;28;20060;-83
2021/11/13 06:06:59;;;;;;;1.65;0.57;;;;;;;;;;5048585;28;20025;-80
2021/11/13 06:09:25;;;;;;;3.08;0.90;;;;;;;;;;5048641;28;20032;-83
2021/11/13 06:11:51;;;;;;;3.95;0.80;;;;;;;;;;5048782;28;20040;-83
2021/11/13 06:14:17;;;;;;;4.03;1.00;;;;;;;;;;5048406;28;20067;-83
2021/11/13 06:16:43;;;;;;;3.33;1.02;;;;;;;;;;5048833;28;20415;-83
2021/11/13 06:19:09;;;;;;;5.32;1.10;;;;;;;;;;5048184;28;20459;-83
2021/11/13 06:21:35;;;;;;;3.00;0.88;;;;;;;;;;5048479;28;20104;-81
2021/11/13 06:24:02;;;;;;;2.70;1.10;;;;;;;;;;5048122;28;20074;-84
2021/11/13 06:26:27;;;;;;;1.80;0.73;;;;;;;;;;5048541;28;20025;-84
2021/11/13 06:28:53;;;;;;;1.77;0.75;;;;;;;;;;5047940;28;20536;-82
2021/11/13 06:31:20;;;;;;;2.60;0.70;;;;;;;;;;5048736;28;20036;-83
2021/11/13 06:33:45;;;;;;;2.63;1.23;;;;;;;;;;5048478;28;20060;-84
2021/11/13 06:36:11;;;;;;;2.53;0.80;;;;;;;;;;5047890;28;20067;-83
2021/11/13 06:38:38;;;;;;;3.00;1.27;;;;;;;;;;5048087;28;20033;-82
2021/11/13 06:41:04;;;;;;;4.13;1.48;;;;;;;;;;5047888;28;20103;-82
2021/11/13 06:43:30;;;;;;;3.65;0.90;;;;;;;;;;5047819;28;20068;-83
2021/11/13 06:45:56;;;;;;;3.58;1.20;;;;;;;;;;5046752;28;20037;-82
2021/11/13 06:48:22;;;;;;;3.05;0.73;;;;;;;;;;5048469;28;20077;-82
2021/11/13 06:50:51;;;;;;;1.70;0.75;;;;;;;;;;5047781;28;20052;-83
2021/11/13 06:53:17;;;;;;;3.13;0.80;;;;;;;;;;5047908;28;20029;-83
2021/11/13 06:55:43;;;;;;;2.45;0.80;;;;;;;;;;5047900;28;20025;-83
2021/11/13 06:58:11;;;;;;;3.55;1.13;;;;;;;;;;5047643;28;20642;-82
2021/11/13 07:00:37;;;;;;;2.17;0.85;;;;;;;;;;5048021;28;20035;-83
2021/11/13 07:03:03;;;;;;;3.53;0.90;;;;;;;;;;5047841;28;20032;-82
2021/11/13 07:05:30;;;;;;;2.55;0.80;;;;;;;;;;5047836;28;20374;-80
2021/11/13 07:07:57;;;;;;;4.75;1.23;;;;;;;;;;5046522;28;20388;-82
2021/11/13 07:10:23;;;;;;;2.72;0.80;;;;;;;;;;5047836;28;20025;-80
2021/11/13 07:12:49;;;;;;;1.67;0.63;;;;;;;;;;5048169;28;20023;-80
2021/11/13 07:15:16;;;;;;;2.50;0.63;;;;;;;;;;5047384;28;20067;-82
2021/11/13 07:17:43;;;;;;;2.40;0.90;;;;;;;;;;5047654;28;20068;-80
2021/11/13 07:20:09;;;;;;;1.83;0.85;;;;;;;;;;5047571;28;20018;-81
2021/11/13 07:22:36;;;;;;;1.60;0.70;;;;;;;;;;5047656;28;20074;-83
2021/11/13 07:25:03;;;;;;;3.70;0.85;;;;;;;;;;5047564;28;20025;-82
2021/11/13 07:27:29;;;;;;;2.03;0.80;;;;;;;;;;5047640;28;20437;-81
2021/11/13 07:30:00;;;;;;;1.52;0.60;;;;;;;;;;5047573;28;20045;-85
2021/11/13 07:32:27;;;;;;;2.13;0.80;;;;;;;;;;5047837;28;20025;-83
2021/11/13 07:34:53;;;;;;;1.90;0.70;;;;;;;;;;5047788;28;20029;-82
2021/11/13 07:37:19;;;;;;;2.22;0.77;;;;;;;;;;5046369;28;20033;-83
2021/11/13 07:39:45;;;;;;;3.17;0.95;;;;;;;;;;5047590;28;20059;-84
2021/11/13 07:42:11;;;;;;;1.77;0.70;;;;;;;;;;5047435;28;20029;-85
2021/11/13 07:44:37;;;;;;;2.15;0.57;;;;;;;;;;5047453;28;20032;-84
2021/11/13 07:47:04;;;;;;;1.50;0.50;;;;;;;;;;5047266;28;20115;-83
2021/11/13 07:49:30;;;;;;;2.65;0.75;;;;;;;;;;5047373;28;20025;-83
2021/11/13 07:51:56;;;;;;;3.10;0.75;;;;;;;;;;5047017;28;20032;-84
2021/11/13 07:54:22;;;;;;;2.97;1.27;;;;;;;;;;5047719;28;20512;-82
2021/11/13 07:56:48;;;;;;;2.25;0.70;;;;;;;;;;5047723;28;20028;-84
2021/11/13 07:59:14;;;;;;;2.53;0.90;;;;;;;;;;5047061;28;20041;-82
2021/11/13 08:01:41;;;;;;;2.78;0.80;;;;;;;;;;5048221;28;20499;-84
2021/11/13 08:04:07;;;;;;;2.95;0.90;;;;;;;;;;5050332;28;20036;-83
2021/11/13 08:06:33;;;;;;;4.93;1.10;;;;;;;;;;5050841;28;20017;-83
2021/11/13 08:08:59;;;;;;;1.85;0.75;;;;;;;;;;5050345;28;20032;-82
2021/11/13 08:11:26;;;;;;;1.95;0.70;;;;;;;;;;5050647;28;20104;-81
2021/11/13 08:13:52;;;;;;;2.17;0.75;;;;;;;;;;5049997;28;20033;-80
2021/11/13 08:16:18;;;;;;;2.35;0.70;;;;;;;;;;5049493;28;20103;-83
2021/11/13 08:18:44;;;;;;;2.58;0.80;;;;;;;;;;5041059;28;20501;-81
2021/11/13 08:21:11;;;;;;;3.08;1.00;;;;;;;;;;5030115;28;20489;-83
2021/11/13 08:23:37;;;;;;;2.63;0.70;;;;;;;;;;5043728;28;20111;-84
2021/11/13 08:26:04;;;;;;;3.97;1.52;;;;;;;;;;5050208;28;20100;-85
2021/11/13 08:28:30;;;;;;;4.47;1.60;;;;;;;;;;5049315;28;20029;-85
2021/11/13 08:30:56;;;;;;;7.75;3.90;;;;;;;;;;5040716;28;20033;-83
2021/11/13 08:33:23;;;;;;;8.77;3.35;;;;;;;;;;5030551;28;20061;-82
2021/11/13 08:35:49;;;;;;;8.90;3.95;;;;;;;;;;5029649;28;20045;-87
2021/11/13 08:38:16;;;;;;;12.25;5.72;;;;;;;;;;5029993;28;20037;-84
2021/11/13 08:40:43;;;;;;;10.95;5.93;;;;;;;;;;5039492;28;20528;-85
2021/11/13 08:43:09;;;;;;;11.45;6.78;;;;;;;;;;5039749;28;20065;-85
2021/11/13 08:45:35;;;;;;;14.73;7.53;;;;;;;;;;5039009;28;20029;-84
2021/11/13 08:48:01;;;;;;;15.32;8.35;;;;;;;;;;5038829;28;20029;-85
2021/11/13 08:50:28;;;;;;;15.80;7.78;;;;;;;;;;5037444;28;20087;-81
2021/11/13 08:52:55;;;;;;;13.75;8.43;;;;;;;;;;5038895;28;20451;-84
2021/11/13 08:55:22;;;;;;;15.05;7.95;;;;;;;;;;5039125;28;20400;-86
2021/11/13 08:57:48;;;;;;;18.50;9.55;;;;;;;;;;5041939;28;20040;-86
2021/11/13 09:00:17;;;;;;;19.17;10.13;;;;;;;;;;5049601;28;20431;-91
2021/11/13 09:02:43;;;;;;;18.20;10.48;;;;;;;;;;5049555;28;20042;-87
2021/11/13 09:05:09;;;;;;;19.80;10.05;;;;;;;;;;5039586;28;20115;-77
2021/11/13 09:07:36;;;;;;;18.48;9.85;;;;;;;;;;5047061;27;20111;-84
2021/11/13 09:10:03;;;;;;;21.17;11.07;;;;;;;;;;5044980;28;20026;-78
2021/11/13 09:12:31;;;;;;;20.40;10.55;;;;;;;;;;5038477;28;20063;-85
2021/11/13 09:14:59;;;;;;;22.05;11.10;;;;;;;;;;5033627;28;20767;-84
2021/11/13 09:17:25;;;;;;;24.35;11.02;;;;;;;;;;5045220;28;20033;-88
2021/11/13 09:19:52;;;;;;;19.08;9.50;;;;;;;;;;5033576;28;20032;-79
2021/11/13 09:22:18;;;;;;;22.92;10.77;;;;;;;;;;5047171;28;20518;-84
2021/11/13 09:24:44;;;;;;;21.63;10.27;;;;;;;;;;5041899;28;20029;-87
2021/11/13 09:27:10;;;;;;;16.85;9.75;;;;;;;;;;5032119;28;20385;-87
2021/11/13 09:29:36;;;;;;;21.27;9.93;;;;;;;;;;5044978;28;20021;-87
2021/11/13 09:32:03;;;;;;;20.50;10.52;;;;;;;;;;5035980;28;20459;-85
2021/11/13 09:34:29;;;;;;;19.00;9.93;;;;;;;;;;5043599;28;20427;-87
2021/11/13 09:36:55;;;;;;;17.40;9.50;;;;;;;;;;5033796;28;20025;-78
2021/11/13 09:39:22;;;;;;;20.10;9.45;;;;;;;;;;5044188;28;20048;-85
2021/11/13 09:41:48;;;;;;;16.50;9.55;;;;;;;;;;5034207;28;20029;-84
2021/11/13 09:44:18;;;;;;;15.20;8.55;;;;;;;;;;5037573;28;20045;-83
2021/11/13 09:46:44;;;;;;;17.67;8.85;;;;;;;;;;5041346;28;20037;-83
2021/11/13 09:49:10;;;;;;;12.60;7.72;;;;;;;;;;5031506;28;20025;-83
2021/11/13 09:51:36;;;;;;;14.38;7.88;;;;;;;;;;5044576;28;20085;-82
2021/11/13 09:54:03;;;;;;;16.88;8.32;;;;;;;;;;5035444;28;20481;-82
2021/11/13 09:56:30;;;;;;;14.98;7.93;;;;;;;;;;5036936;28;20097;-82
2021/11/13 09:58:56;;;;;;;16.15;7.47;;;;;;;;;;5041401;28;20068;-83
2021/11/13 10:01:22;;;;;;;16.98;7.32;;;;;;;;;;5045066;28;20033;-85
2021/11/13 10:03:48;;;;;;;14.20;7.40;;;;;;;;;;5033846;28;20077;-87
2021/11/13 10:06:15;;;;;;;14.38;7.28;;;;;;;;;;5037862;28;20018;-84
2021/11/13 10:08:49;;;;;;;12.00;6.75;;;;;;;;;;5047382;28;20116;-80
2021/11/13 10:11:17;;;;;;;14.30;6.95;;;;;;;;;;5031349;28;20373;-83
2021/11/13 10:13:49;;;;;;;15.10;6.28;;;;;;;;;;5043640;28;20025;-83
2021/11/13 10:16:21;;;;;;;15.85;6.53;;;;;;;;;;5036129;28;20069;-82
2021/11/13 10:18:52;;;;;;;11.38;6.40;;;;;;;;;;5034588;28;20069;-81
2021/11/13 10:21:22;;;;;;;12.88;6.57;;;;;;;;;;5044750;28;20067;-81
2021/11/13 10:23:59;;;;;;;10.05;5.90;;;;;;;;;;5036542;28;20025;-81
2021/11/13 10:26:25;;;;;;;10.30;5.15;;;;;;;;;;5037265;28;20108;-83
2021/11/13 10:28:56;;;;;;;11.02;5.72;;;;;;;;;;5031684;28;20050;-84
2021/11/13 10:31:22;;;;;;;8.65;5.40;;;;;;;;;;5044541;28;20021;-82
2021/11/13 10:33:49;;;;;;;10.15;5.65;;;;;;;;;;5040137;28;20033;-83
2021/11/13 10:36:20;;;;;;;9.43;4.97;;;;;;;;;;5036570;28;20063;-82
2021/11/13 10:38:49;;;;;;;11.80;5.47;;;;;;;;;;5037140;28;20405;-77
2021/11/13 10:41:15;;;;;;;8.82;4.93;;;;;;;;;;5040964;28;20057;-81
2021/11/13 10:43:42;;;;;;;9.90;5.45;;;;;;;;;;5043342;28;20077;-80
2021/11/13 10:46:17;;;;;;;13.82;5.95;;;;;;;;;;5037101;28;20040;-76
2021/11/13 10:48:48;;;;;;;13.77;5.80;;;;;;;;;;5033294;28;20033;-76
2021/11/13 10:51:24;;;;;;;9.75;5.18;;;;;;;;;;5040846;28;20040;-77
2021/11/13 10:53:50;;;;;;;10.68;5.13;;;;;;;;;;5033749;28;20040;-79
2021/11/13 10:56:18;;;;;;;12.75;5.35;;;;;;;;;;5037908;28;20384;-78
2021/11/13 10:58:52;;;;;;;13.02;4.57;;;;;;;;;;5041758;28;20116;-80
2021/11/13 11:01:24;;;;;;;10.75;4.40;;;;;;;;;;5043895;28;20108;-81
2021/11/13 11:03:51;;;;;;;10.18;5.07;;;;;;;;;;5033217;28;20023;-79
2021/11/13 11:06:30;;;;;;;10.52;4.18;;;;;;;;;;5037752;28;20471;-80
2021/11/13 11:08:58;;;;;;;7.50;3.92;;;;;;;;;;5041925;28;20036;-77
2021/11/13 11:11:27;;;;;;;12.18;4.72;;;;;;;;;;5030841;28;20397;-78
2021/11/13 11:13:54;;;;;;;10.57;4.68;;;;;;;;;;5041461;28;20029;-77
2021/11/13 11:16:34;;;;;;;9.95;3.70;;;;;;;;;;5037236;28;20070;-79
2021/11/13 11:19:04;;;;;;;7.78;3.40;;;;;;;;;;5031918;28;20037;-79
2021/11/13 11:22:00;;;;;;;8.40;3.90;;;;;;;;;;5043760;28;20049;-79
2021/11/13 11:24:32;;;;;;;8.57;4.22;;;;;;;;;;5045270;28;20455;-77
2021/11/13 11:27:00;;;;;;;7.30;3.67;;;;;;;;;;5034753;28;20790;-77
2021/11/13 11:29:28;;;;;;;6.90;3.30;;;;;;;;;;5038675;28;20554;-78
2021/11/13 11:31:56;;;;;;;10.35;3.22;;;;;;;;;;5040604;28;20485;-77
2021/11/13 11:34:30;;;;;;;7.60;3.10;;;;;;;;;;5030676;28;20067;-78
2021/11/13 11:36:57;;;;;;;9.73;3.17;;;;;;;;;;5044381;28;20025;-78
2021/11/13 11:39:24;;;;;;;8.63;3.53;;;;;;;;;;5041466;28;20438;-76
2021/11/13 11:41:51;;;;;;;7.40;3.58;;;;;;;;;;5037147;28;20068;-79
2021/11/13 11:44:18;;;;;;;11.20;3.83;;;;;;;;;;5036583;28;20045;-81
2021/11/13 11:46:44;;;;;;;9.35;3.25;;;;;;;;;;5043286;28;20117;-80
2021/11/13 11:49:11;;;;;;;8.25;3.13;;;;;;;;;;5033593;28;20070;-80
2021/11/13 11:51:37;;;;;;;7.30;2.83;;;;;;;;;;5046338;28;20029;-79
2021/11/13 11:54:05;;;;;;;9.63;3.30;;;;;;;;;;5036153;28;20469;-80
2021/11/13 11:56:31;;;;;;;9.55;3.50;;;;;;;;;;5042482;28;20021;-81
2021/11/13 11:58:57;;;;;;;11.90;3.80;;;;;;;;;;5048661;28;20163;-79
2021/11/13 12:01:27;;;;;;;6.78;3.20;;;;;;;;;;5046838;28;20057;-76
2021/11/13 12:04:09;;;;;;;6.93;2.75;;;;;;;;;;5036262;28;20065;-77
2021/11/13 12:06:42;;;;;;;8.35;3.05;;;;;;;;;;5037081;28;20470;-85
2021/11/13 12:09:08;;;;;;;10.60;3.45;;;;;;;;;;5046282;28;20492;-85
2021/11/13 12:11:36;;;;;;;5.68;2.83;;;;;;;;;;5033627;28;20021;-86
2021/11/13 12:14:23;;;;;;;7.72;2.20;;;;;;;;;;5042350;28;20074;-87
2021/11/13 12:16:49;;;;;;;5.13;2.67;;;;;;;;;;5043991;28;20020;-86
2021/11/13 12:19:15;;;;;;;5.43;2.33;;;;;;;;;;5047744;28;20450;-81
2021/11/13 12:21:52;;;;;;;3.97;2.25;;;;;;;;;;5034519;28;20021;-81
2021/11/13 12:24:18;;;;;;;7.20;2.90;;;;;;;;;;5040223;28;20028;-80
2021/11/13 12:26:58;;;;;;;5.75;2.20;;;;;;;;;;5042887;28;20017;-80
2021/11/13 12:29:24;;;;;;;7.03;2.63;;;;;;;;;;5033058;28;20049;-79
2021/11/13 12:31:51;;;;;;;4.70;2.63;;;;;;;;;;5044174;28;20018;-82
2021/11/13 12:34:21;;;;;;;6.57;1.98;;;;;;;;;;5043242;28;20104;-82
2021/11/13 12:36:49;;;;;;;11.10;2.00;;;;;;;;;;5036325;28;20048;-82
2021/11/13 12:39:17;;;;;;;4.72;1.52;;;;;;;;;;5045730;28;20480;-80
2021/11/13 12:41:44;;;;;;;7.80;2.00;;;;;;;;;;5034084;28;20073;-81
2021/11/13 12:44:20;;;;;;;5.53;1.85;;;;;;;;;;5046515;28;20032;-81
2021/11/13 12:46:52;;;;;;;3.53;2.05;;;;;;;;;;5042146;28;20033;-80
2021/11/13 12:49:25;;;;;;;5.53;1.90;;;;;;;;;;5032310;28;20047;-80
2021/11/13 12:51:54;;;;;;;3.92;1.80;;;;;;;;;;5043904;28;20013;-79
2021/11/13 12:54:38;;;;;;;7.90;1.98;;;;;;;;;;5039336;28;20028;-81
2021/11/13 12:57:05;;;;;;;6.35;1.55;;;;;;;;;;5033180;28;20063;-80
2021/11/13 12:59:33;;;;;;;4.25;1.90;;;;;;;;;;5045713;28;20419;-82
2021/11/13 13:02:01;;;;;;;5.40;1.80;;;;;;;;;;5042020;28;20025;-81
2021/11/13 13:04:31;;;;;;;3.67;1.80;;;;;;;;;;5039892;28;20032;-81
2021/11/13 13:06:57;;;;;;;3.20;1.90;;;;;;;;;;5034031;28;20026;-81
2021/11/13 13:09:23;;;;;;;5.65;1.80;;;;;;;;;;5039011;28;20084;-76
2021/11/13 13:11:53;;;;;;;4.18;1.95;;;;;;;;;;5036799;28;20073;-77
2021/11/13 13:14:20;;;;;;;4.68;1.92;;;;;;;;;;5040528;28;20549;-78
2021/11/13 13:16:47;;;;;;;4.18;1.60;;;;;;;;;;5039283;28;20067;-78
2021/11/13 13:19:13;;;;;;;3.30;1.40;;;;;;;;;;5038816;28;20040;-79
2021/11/13 13:21:41;;;;;;;3.80;1.42;;;;;;;;;;5040726;28;20044;-79
2021/11/13 13:24:11;;;;;;;6.63;2.03;;;;;;;;;;5037893;28;20022;-80
2021/11/13 13:26:37;;;;;;;3.08;1.38;;;;;;;;;;5060050;28;20092;-79
2021/11/13 13:29:13;;;;;;;3.55;1.75;;;;;;;;;;5041093;28;20114;-80
2021/11/13 13:31:40;;;;;;;5.13;1.65;;;;;;;;;;5039244;28;20097;-79
2021/11/13 13:34:06;;;;;;;7.30;1.67;;;;;;;;;;5037755;28;20096;-80
2021/11/13 13:36:41;;;;;;;3.45;1.52;;;;;;;;;;5041640;28;20032;-78
2021/11/13 13:39:07;;;;;;;;;;;;;;;;;;5041607;28;20026;-80
2021/11/13 13:41:33;;;;;;;3.78;1.63;;;;;;;;;;5040419;28;19911;-80
2021/11/13 13:44:00;;;;;;;3.97;1.48;;;;;;;;;;5040165;28;20439;-81
2021/11/13 13:46:31;;;;;;;3.67;1.30;;;;;;;;;;5042240;28;20123;-80
2021/11/13 13:49:00;;;;;;;3.65;1.23;;;;;;;;;;5039895;28;20033;-80
2021/11/13 13:51:33;;;;;;;3.15;1.42;;;;;;;;;;5042516;28;20081;-80
2021/11/13 13:54:00;;;;;;;3.08;1.30;;;;;;;;;;5040069;28;20029;-77
2021/11/13 13:56:27;;;;;;;5.38;1.77;;;;;;;;;;5037663;28;20070;-80
2021/11/13 13:58:54;;;;;;;3.90;1.75;;;;;;;;;;5041587;28;20069;-75
2021/11/13 14:01:21;;;;;;;3.80;1.58;;;;;;;;;;5044988;28;20013;-79
2021/11/13 14:03:47;;;;;;;3.42;1.25;;;;;;;;;;5033401;28;20105;-79
2021/11/13 14:06:13;;;;;;;3.50;1.42;;;;;;;;;;5039341;28;20018;-77
2021/11/13 14:08:49;;;;;;;2.75;1.30;;;;;;;;;;5040455;28;20475;-79
2021/11/13 14:11:21;;;;;;;5.20;1.48;;;;;;;;;;5031283;28;20420;-78
2021/11/13 14:13:47;;;;;;;4.65;1.38;;;;;;;;;;5042760;28;20013;-78
2021/11/13 14:16:13;;;;;;;4.25;1.60;;;;;;;;;;5036790;28;20032;-78
2021/11/13 14:18:41;;;;;;;6.25;1.73;;;;;;;;;;5042707;28;20112;-78
2021/11/13 14:21:08;;;;;;;3.58;1.70;;;;;;;;;;5035017;28;20085;-78
2021/11/13 14:23:36;;;;;;;5.68;1.83;;;;;;;;;;5038059;28;20461;-78
2021/11/13 14:26:04;;;;;;;2.60;1.13;;;;;;;;;;5034885;28;20071;-78
2021/11/13 14:28:34;;;;;;;3.75;1.15;;;;;;;;;;5038699;28;20029;-79
2021/11/13 14:31:02;;;;;;;3.30;1.08;;;;;;;;;;5041559;28;20025;-78
2021/11/13 14:33:28;;;;;;;2.95;1.33;;;;;;;;;;5041888;28;20029;-78
2021/11/13 14:35:54;;;;;;;3.13;1.10;;;;;;;;;;5043902;28;20075;-78
2021/11/13 14:38:21;;;;;;;3.92;1.30;;;;;;;;;;5037731;28;20477;-78
2021/11/13 14:40:52;;;;;;;3.22;1.65;;;;;;;;;;5033850;28;20021;-78